Terminal Aerodrome Forecast
Issued by NWS

Home | Current Version | Previous Version | Text Only | Print | Product List | Glossary On
Versions: 1 2 3 4 5 6 7 8 9 10 11 12 13 14 15 16 17 18
000
FTUS46 KSEW 250520
TAFHQM
TAF
KHQM 250520Z 2506/2606 26006KT P6SM SKC
     FM251200 VRB03KT 1SM BR BKN003
     FM251700 23004KT P6SM FEW005
     FM252000 24012KT P6SM SKC=

USA.gov is the U.S. government's official web portal to all federal, state and local government web resources and services.